sensor_id;sensor_type;location;lat;lon;timestamp;temperature;humidity
28845;DHT22;15976;47.938;7.758;2023-05-29T00:00:11;18.60;43.70
28845;DHT22;15976;47.938;7.758;2023-05-29T00:02:49;18.60;43.90
28845;DHT22;15976;47.938;7.758;2023-05-29T00:05:19;18.60;44.20
28845;DHT22;15976;47.938;7.758;2023-05-29T00:07:59;18.50;44.10
28845;DHT22;15976;47.938;7.758;2023-05-29T00:10:32;18.60;43.80
28845;DHT22;15976;47.938;7.758;2023-05-29T00:13:10;18.60;43.80
28845;DHT22;15976;47.938;7.758;2023-05-29T00:15:45;18.60;43.90
28845;DHT22;15976;47.938;7.758;2023-05-29T00:18:35;18.60;43.90
28845;DHT22;15976;47.938;7.758;2023-05-29T00:21:08;18.60;43.90
28845;DHT22;15976;47.938;7.758;2023-05-29T00:23:38;18.50;44.00
28845;DHT22;15976;47.938;7.758;2023-05-29T00:26:21;18.50;44.10
28845;DHT22;15976;47.938;7.758;2023-05-29T00:29:11;18.50;44.20
28845;DHT22;15976;47.938;7.758;2023-05-29T00:31:44;18.40;44.10
28845;DHT22;15976;47.938;7.758;2023-05-29T00:34:19;18.50;44.10
28845;DHT22;15976;47.938;7.758;2023-05-29T00:36:52;18.40;44.00
28845;DHT22;15976;47.938;7.758;2023-05-29T00:39:53;18.40;43.90
28845;DHT22;15976;47.938;7.758;2023-05-29T00:42:26;18.40;43.80
28845;DHT22;15976;47.938;7.758;2023-05-29T00:44:58;18.40;43.80
28845;DHT22;15976;47.938;7.758;2023-05-29T00:47:42;18.40;43.90
28845;DHT22;15976;47.938;7.758;2023-05-29T00:50:31;18.40;44.00
28845;DHT22;15976;47.938;7.758;2023-05-29T00:53:02;18.40;44.10
28845;DHT22;15976;47.938;7.758;2023-05-29T00:55:43;18.40;44.10
28845;DHT22;15976;47.938;7.758;2023-05-29T00:58:17;18.40;44.40
28845;DHT22;15976;47.938;7.758;2023-05-29T01:00:55;18.40;44.40
28845;DHT22;15976;47.938;7.758;2023-05-29T01:03:33;18.30;44.30
28845;DHT22;15976;47.938;7.758;2023-05-29T01:06:15;18.30;44.40
28845;DHT22;15976;47.938;7.758;2023-05-29T01:08:54;18.30;44.40
28845;DHT22;15976;47.938;7.758;2023-05-29T01:14:37;18.20;45.50
28845;DHT22;15976;47.938;7.758;2023-05-29T01:17:31;18.20;45.70
28845;DHT22;15976;47.938;7.758;2023-05-29T01:23:52;18.00;46.80
28845;DHT22;15976;47.938;7.758;2023-05-29T01:29:24;17.70;47.70
28845;DHT22;15976;47.938;7.758;2023-05-29T01:32:01;17.60;47.80
28845;DHT22;15976;47.938;7.758;2023-05-29T01:34:42;17.50;48.10
28845;DHT22;15976;47.938;7.758;2023-05-29T01:37:21;17.40;48.50
28845;DHT22;15976;47.938;7.758;2023-05-29T01:39:53;17.30;48.90
28845;DHT22;15976;47.938;7.758;2023-05-29T01:42:26;17.20;49.10
28845;DHT22;15976;47.938;7.758;2023-05-29T01:45:02;17.20;49.50
28845;DHT22;15976;47.938;7.758;2023-05-29T01:47:34;17.10;49.80
28845;DHT22;15976;47.938;7.758;2023-05-29T01:50:13;17.10;50.00
28845;DHT22;15976;47.938;7.758;2023-05-29T01:52:59;17.00;50.20
28845;DHT22;15976;47.938;7.758;2023-05-29T01:55:54;16.90;50.20
28845;DHT22;15976;47.938;7.758;2023-05-29T01:58:39;16.80;50.50
28845;DHT22;15976;47.938;7.758;2023-05-29T02:01:15;16.70;50.80
28845;DHT22;15976;47.938;7.758;2023-05-29T02:03:59;16.60;50.90
28845;DHT22;15976;47.938;7.758;2023-05-29T02:06:44;16.60;51.10
28845;DHT22;15976;47.938;7.758;2023-05-29T02:09:17;16.60;51.10
28845;DHT22;15976;47.938;7.758;2023-05-29T02:12:11;16.60;51.40
28845;DHT22;15976;47.938;7.758;2023-05-29T02:14:49;16.50;51.50
28845;DHT22;15976;47.938;7.758;2023-05-29T02:17:16;16.50;51.80
28845;DHT22;15976;47.938;7.758;2023-05-29T02:19:58;16.40;51.90
28845;DHT22;15976;47.938;7.758;2023-05-29T02:22:32;16.40;52.10
28845;DHT22;15976;47.938;7.758;2023-05-29T02:25:06;16.30;52.10
28845;DHT22;15976;47.938;7.758;2023-05-29T02:27:44;16.20;52.30
28845;DHT22;15976;47.938;7.758;2023-05-29T02:30:18;16.20;52.50
28845;DHT22;15976;47.938;7.758;2023-05-29T02:33:01;16.10;52.70
28845;DHT22;15976;47.938;7.758;2023-05-29T02:35:41;16.10;52.80
28845;DHT22;15976;47.938;7.758;2023-05-29T02:38:20;16.00;52.80
28845;DHT22;15976;47.938;7.758;2023-05-29T02:41:08;16.00;53.30
28845;DHT22;15976;47.938;7.758;2023-05-29T02:43:43;16.00;53.00
28845;DHT22;15976;47.938;7.758;2023-05-29T02:46:15;16.00;53.10
28845;DHT22;15976;47.938;7.758;2023-05-29T02:48:59;15.90;53.10
28845;DHT22;15976;47.938;7.758;2023-05-29T02:51:52;15.90;53.20
28845;DHT22;15976;47.938;7.758;2023-05-29T02:54:33;15.90;52.80
28845;DHT22;15976;47.938;7.758;2023-05-29T02:57:16;15.90;52.80
28845;DHT22;15976;47.938;7.758;2023-05-29T02:59:49;15.90;52.90
28845;DHT22;15976;47.938;7.758;2023-05-29T03:02:32;15.90;53.20
28845;DHT22;15976;47.938;7.758;2023-05-29T03:05:04;15.90;53.40
28845;DHT22;15976;47.938;7.758;2023-05-29T03:07:51;15.90;53.30
28845;DHT22;15976;47.938;7.758;2023-05-29T03:10:34;15.90;53.60
28845;DHT22;15976;47.938;7.758;2023-05-29T03:13:19;15.80;53.60
28845;DHT22;15976;47.938;7.758;2023-05-29T03:16:07;15.80;53.90
28845;DHT22;15976;47.938;7.758;2023-05-29T03:18:53;15.70;54.00
28845;DHT22;15976;47.938;7.758;2023-05-29T03:24:02;15.70;54.10
28845;DHT22;15976;47.938;7.758;2023-05-29T03:26:47;15.70;54.30
28845;DHT22;15976;47.938;7.758;2023-05-29T03:29:17;15.60;54.30
28845;DHT22;15976;47.938;7.758;2023-05-29T03:31:50;15.60;54.40
28845;DHT22;15976;47.938;7.758;2023-05-29T03:34:33;15.60;54.30
28845;DHT22;15976;47.938;7.758;2023-05-29T03:37:05;15.60;54.40
28845;DHT22;15976;47.938;7.758;2023-05-29T03:39:37;15.50;54.40
28845;DHT22;15976;47.938;7.758;2023-05-29T03:42:07;15.50;54.50
28845;DHT22;15976;47.938;7.758;2023-05-29T03:44:36;15.50;54.60
28845;DHT22;15976;47.938;7.758;2023-05-29T03:47:14;15.40;54.70
28845;DHT22;15976;47.938;7.758;2023-05-29T03:49:44;15.40;54.70
28845;DHT22;15976;47.938;7.758;2023-05-29T03:52:18;15.30;54.90
28845;DHT22;15976;47.938;7.758;2023-05-29T03:55:19;15.30;55.10
28845;DHT22;15976;47.938;7.758;2023-05-29T03:58:05;15.30;55.50
28845;DHT22;15976;47.938;7.758;2023-05-29T04:00:36;15.20;55.50
28845;DHT22;15976;47.938;7.758;2023-05-29T04:03:19;15.20;55.70
28845;DHT22;15976;47.938;7.758;2023-05-29T04:05:47;15.30;55.80
28845;DHT22;15976;47.938;7.758;2023-05-29T04:08:49;15.30;55.90
28845;DHT22;15976;47.938;7.758;2023-05-29T04:11:38;15.20;56.00
28845;DHT22;15976;47.938;7.758;2023-05-29T04:14:14;15.20;55.90
28845;DHT22;15976;47.938;7.758;2023-05-29T04:16:49;15.10;56.00
28845;DHT22;15976;47.938;7.758;2023-05-29T04:19:23;15.10;56.20
28845;DHT22;15976;47.938;7.758;2023-05-29T04:21:53;15.10;56.20
28845;DHT22;15976;47.938;7.758;2023-05-29T04:24:24;15.10;56.40
28845;DHT22;15976;47.938;7.758;2023-05-29T04:27:14;15.00;56.50
28845;DHT22;15976;47.938;7.758;2023-05-29T04:29:45;14.90;56.30
28845;DHT22;15976;47.938;7.758;2023-05-29T04:32:16;14.90;56.40
28845;DHT22;15976;47.938;7.758;2023-05-29T04:34:51;15.00;56.40
28845;DHT22;15976;47.938;7.758;2023-05-29T04:37:29;15.00;56.40
28845;DHT22;15976;47.938;7.758;2023-05-29T04:40:13;15.00;56.50
28845;DHT22;15976;47.938;7.758;2023-05-29T04:42:55;15.00;56.80
28845;DHT22;15976;47.938;7.758;2023-05-29T04:45:30;15.10;57.20
28845;DHT22;15976;47.938;7.758;2023-05-29T04:48:08;15.10;57.50
28845;DHT22;15976;47.938;7.758;2023-05-29T04:50:53;15.20;57.40
28845;DHT22;15976;47.938;7.758;2023-05-29T04:53:35;15.20;57.60
28845;DHT22;15976;47.938;7.758;2023-05-29T04:56:27;15.20;57.70
28845;DHT22;15976;47.938;7.758;2023-05-29T04:59:03;15.20;58.00
28845;DHT22;15976;47.938;7.758;2023-05-29T05:01:48;15.20;58.00
28845;DHT22;15976;47.938;7.758;2023-05-29T05:07:53;15.30;58.30
28845;DHT22;15976;47.938;7.758;2023-05-29T05:10:34;15.40;58.30
28845;DHT22;15976;47.938;7.758;2023-05-29T05:13:15;15.40;58.30
28845;DHT22;15976;47.938;7.758;2023-05-29T05:16:14;15.50;58.30
28845;DHT22;15976;47.938;7.758;2023-05-29T05:18:48;15.60;58.50
28845;DHT22;15976;47.938;7.758;2023-05-29T05:21:51;15.60;58.50
28845;DHT22;15976;47.938;7.758;2023-05-29T05:24:31;15.70;58.90
28845;DHT22;15976;47.938;7.758;2023-05-29T05:27:13;15.70;58.60
28845;DHT22;15976;47.938;7.758;2023-05-29T05:29:45;15.80;58.70
28845;DHT22;15976;47.938;7.758;2023-05-29T05:32:23;15.80;59.30
28845;DHT22;15976;47.938;7.758;2023-05-29T05:35:09;15.90;58.80
28845;DHT22;15976;47.938;7.758;2023-05-29T05:37:46;16.00;58.80
28845;DHT22;15976;47.938;7.758;2023-05-29T05:40:33;16.00;58.70
28845;DHT22;15976;47.938;7.758;2023-05-29T05:43:18;16.10;58.80
28845;DHT22;15976;47.938;7.758;2023-05-29T05:46:36;16.10;58.60
28845;DHT22;15976;47.938;7.758;2023-05-29T05:49:09;16.20;58.30
28845;DHT22;15976;47.938;7.758;2023-05-29T05:51:47;16.20;58.20
28845;DHT22;15976;47.938;7.758;2023-05-29T05:54:25;16.30;58.30
28845;DHT22;15976;47.938;7.758;2023-05-29T05:57:05;16.40;58.50
28845;DHT22;15976;47.938;7.758;2023-05-29T05:59:49;16.50;58.40
28845;DHT22;15976;47.938;7.758;2023-05-29T06:02:24;16.60;58.20
28845;DHT22;15976;47.938;7.758;2023-05-29T06:05:07;16.70;58.00
28845;DHT22;15976;47.938;7.758;2023-05-29T06:07:50;16.80;58.00
28845;DHT22;15976;47.938;7.758;2023-05-29T06:10:20;16.90;58.10
28845;DHT22;15976;47.938;7.758;2023-05-29T06:12:55;17.00;58.00
28845;DHT22;15976;47.938;7.758;2023-05-29T06:15:42;17.10;58.00
28845;DHT22;15976;47.938;7.758;2023-05-29T06:18:14;17.20;58.00
28845;DHT22;15976;47.938;7.758;2023-05-29T06:20:56;17.30;58.00
28845;DHT22;15976;47.938;7.758;2023-05-29T06:23:43;17.40;57.80
28845;DHT22;15976;47.938;7.758;2023-05-29T06:26:24;17.50;57.70
28845;DHT22;15976;47.938;7.758;2023-05-29T06:28:58;17.60;57.40
28845;DHT22;15976;47.938;7.758;2023-05-29T06:31:29;17.70;57.40
28845;DHT22;15976;47.938;7.758;2023-05-29T06:34:05;17.80;57.30
28845;DHT22;15976;47.938;7.758;2023-05-29T06:36:43;18.00;57.30
28845;DHT22;15976;47.938;7.758;2023-05-29T06:39:24;18.10;57.10
28845;DHT22;15976;47.938;7.758;2023-05-29T06:42:08;18.20;56.80
28845;DHT22;15976;47.938;7.758;2023-05-29T06:44:46;18.30;56.70
28845;DHT22;15976;47.938;7.758;2023-05-29T06:47:29;18.40;56.50
28845;DHT22;15976;47.938;7.758;2023-05-29T06:50:01;18.50;56.50
28845;DHT22;15976;47.938;7.758;2023-05-29T06:53:12;18.70;56.30
28845;DHT22;15976;47.938;7.758;2023-05-29T06:55:50;18.90;55.90
28845;DHT22;15976;47.938;7.758;2023-05-29T06:58:23;19.00;55.50
28845;DHT22;15976;47.938;7.758;2023-05-29T07:00:58;19.10;55.50
28845;DHT22;15976;47.938;7.758;2023-05-29T07:03:36;19.20;55.30
28845;DHT22;15976;47.938;7.758;2023-05-29T07:06:08;19.40;55.10
28845;DHT22;15976;47.938;7.758;2023-05-29T07:08:44;19.50;54.80
28845;DHT22;15976;47.938;7.758;2023-05-29T07:11:22;19.70;54.80
28845;DHT22;15976;47.938;7.758;2023-05-29T07:14:12;19.80;54.30
28845;DHT22;15976;47.938;7.758;2023-05-29T07:16:56;20.00;53.90
28845;DHT22;15976;47.938;7.758;2023-05-29T07:19:25;20.20;53.60
28845;DHT22;15976;47.938;7.758;2023-05-29T07:22:10;20.30;53.10
28845;DHT22;15976;47.938;7.758;2023-05-29T07:24:45;20.50;52.50
28845;DHT22;15976;47.938;7.758;2023-05-29T07:27:29;20.60;52.00
28845;DHT22;15976;47.938;7.758;2023-05-29T07:30:05;20.60;51.70
28845;DHT22;15976;47.938;7.758;2023-05-29T07:33:03;20.80;51.50
28845;DHT22;15976;47.938;7.758;2023-05-29T07:35:36;20.90;51.10
28845;DHT22;15976;47.938;7.758;2023-05-29T07:38:22;21.20;50.60
28845;DHT22;15976;47.938;7.758;2023-05-29T07:40:59;21.40;50.20
28845;DHT22;15976;47.938;7.758;2023-05-29T07:43:48;21.70;49.90
28845;DHT22;15976;47.938;7.758;2023-05-29T07:46:28;22.10;49.30
28845;DHT22;15976;47.938;7.758;2023-05-29T07:49:27;22.50;48.70
28845;DHT22;15976;47.938;7.758;2023-05-29T07:52:12;22.80;47.80
28845;DHT22;15976;47.938;7.758;2023-05-29T07:54:45;23.20;47.10
28845;DHT22;15976;47.938;7.758;2023-05-29T07:57:16;23.50;46.40
28845;DHT22;15976;47.938;7.758;2023-05-29T07:59:49;23.90;45.80
28845;DHT22;15976;47.938;7.758;2023-05-29T08:02:20;24.20;45.30
28845;DHT22;15976;47.938;7.758;2023-05-29T08:05:10;24.50;44.70
28845;DHT22;15976;47.938;7.758;2023-05-29T08:07:43;25.00;44.10
28845;DHT22;15976;47.938;7.758;2023-05-29T08:10:18;25.30;43.30
28845;DHT22;15976;47.938;7.758;2023-05-29T08:12:51;25.50;42.90
28845;DHT22;15976;47.938;7.758;2023-05-29T08:15:20;25.70;42.40
28845;DHT22;15976;47.938;7.758;2023-05-29T08:17:54;25.90;42.10
28845;DHT22;15976;47.938;7.758;2023-05-29T08:20:32;26.30;41.30
28845;DHT22;15976;47.938;7.758;2023-05-29T08:23:06;26.40;41.10
28845;DHT22;15976;47.938;7.758;2023-05-29T08:25:39;26.60;40.30
28845;DHT22;15976;47.938;7.758;2023-05-29T08:28:11;26.70;40.20
28845;DHT22;15976;47.938;7.758;2023-05-29T08:31:07;26.90;40.20
28845;DHT22;15976;47.938;7.758;2023-05-29T08:33:43;27.20;39.80
28845;DHT22;15976;47.938;7.758;2023-05-29T08:36:11;27.50;39.40
28845;DHT22;15976;47.938;7.758;2023-05-29T08:38:49;27.80;38.50
28845;DHT22;15976;47.938;7.758;2023-05-29T08:41:41;27.90;37.90
28845;DHT22;15976;47.938;7.758;2023-05-29T08:44:22;28.10;37.30
28845;DHT22;15976;47.938;7.758;2023-05-29T08:47:07;28.30;36.90
28845;DHT22;15976;47.938;7.758;2023-05-29T08:49:49;28.60;36.40
28845;DHT22;15976;47.938;7.758;2023-05-29T08:52:25;28.90;36.20
28845;DHT22;15976;47.938;7.758;2023-05-29T08:54:57;29.10;35.80
28845;DHT22;15976;47.938;7.758;2023-05-29T08:57:29;29.30;35.50
28845;DHT22;15976;47.938;7.758;2023-05-29T09:00:01;29.40;35.00
28845;DHT22;15976;47.938;7.758;2023-05-29T09:02:39;29.50;34.70
28845;DHT22;15976;47.938;7.758;2023-05-29T09:05:16;29.80;34.00
28845;DHT22;15976;47.938;7.758;2023-05-29T09:07:56;29.90;33.40
28845;DHT22;15976;47.938;7.758;2023-05-29T09:10:50;30.20;33.40
28845;DHT22;15976;47.938;7.758;2023-05-29T09:13:26;30.50;33.10
28845;DHT22;15976;47.938;7.758;2023-05-29T09:16:03;30.80;32.40
28845;DHT22;15976;47.938;7.758;2023-05-29T09:18:50;31.10;31.70
28845;DHT22;15976;47.938;7.758;2023-05-29T09:21:27;31.30;31.10
28845;DHT22;15976;47.938;7.758;2023-05-29T09:24:13;31.30;31.10
28845;DHT22;15976;47.938;7.758;2023-05-29T09:26:50;31.70;30.80
28845;DHT22;15976;47.938;7.758;2023-05-29T09:29:23;31.90;30.00
28845;DHT22;15976;47.938;7.758;2023-05-29T09:31:56;32.10;30.00
28845;DHT22;15976;47.938;7.758;2023-05-29T09:37:22;32.40;30.00
28845;DHT22;15976;47.938;7.758;2023-05-29T09:40:04;32.80;29.70
28845;DHT22;15976;47.938;7.758;2023-05-29T09:42:42;33.10;29.30
28845;DHT22;15976;47.938;7.758;2023-05-29T09:45:21;33.60;28.90
28845;DHT22;15976;47.938;7.758;2023-05-29T09:48:00;33.90;28.80
28845;DHT22;15976;47.938;7.758;2023-05-29T09:50:32;34.10;28.60
28845;DHT22;15976;47.938;7.758;2023-05-29T09:53:15;34.50;28.30
28845;DHT22;15976;47.938;7.758;2023-05-29T09:55:47;34.60;28.00
28845;DHT22;15976;47.938;7.758;2023-05-29T09:58:32;34.70;28.10
28845;DHT22;15976;47.938;7.758;2023-05-29T10:01:03;34.80;27.80
28845;DHT22;15976;47.938;7.758;2023-05-29T10:03:44;34.90;27.70
28845;DHT22;15976;47.938;7.758;2023-05-29T10:06:18;35.20;27.20
28845;DHT22;15976;47.938;7.758;2023-05-29T10:09:03;35.50;26.90
28845;DHT22;15976;47.938;7.758;2023-05-29T10:11:55;35.70;26.50
28845;DHT22;15976;47.938;7.758;2023-05-29T10:14:37;36.00;26.30
28845;DHT22;15976;47.938;7.758;2023-05-29T10:17:08;36.10;26.00
28845;DHT22;15976;47.938;7.758;2023-05-29T10:19:47;36.40;26.10
28845;DHT22;15976;47.938;7.758;2023-05-29T10:22:51;36.90;25.80
28845;DHT22;15976;47.938;7.758;2023-05-29T10:25:40;37.30;25.50
28845;DHT22;15976;47.938;7.758;2023-05-29T10:28:16;37.70;25.10
28845;DHT22;15976;47.938;7.758;2023-05-29T10:31:04;38.00;24.80
28845;DHT22;15976;47.938;7.758;2023-05-29T10:34:26;38.20;24.30
28845;DHT22;15976;47.938;7.758;2023-05-29T10:39:53;38.40;23.90
28845;DHT22;15976;47.938;7.758;2023-05-29T10:42:47;38.30;24.00
28845;DHT22;15976;47.938;7.758;2023-05-29T10:50:46;38.70;23.90
28845;DHT22;15976;47.938;7.758;2023-05-29T10:53:49;39.10;23.60
28845;DHT22;15976;47.938;7.758;2023-05-29T10:56:39;39.50;23.10
28845;DHT22;15976;47.938;7.758;2023-05-29T10:59:36;39.90;23.10
28845;DHT22;15976;47.938;7.758;2023-05-29T11:02:21;40.20;22.80
28845;DHT22;15976;47.938;7.758;2023-05-29T11:05:19;40.30;22.20
28845;DHT22;15976;47.938;7.758;2023-05-29T11:08:04;40.40;22.10
28845;DHT22;15976;47.938;7.758;2023-05-29T11:13:34;41.00;21.90
28845;DHT22;15976;47.938;7.758;2023-05-29T11:19:19;41.60;21.30
28845;DHT22;15976;47.938;7.758;2023-05-29T11:24:35;41.90;21.50
28845;DHT22;15976;47.938;7.758;2023-05-29T11:27:10;42.20;20.90
28845;DHT22;15976;47.938;7.758;2023-05-29T11:29:43;42.40;20.70
28845;DHT22;15976;47.938;7.758;2023-05-29T11:32:21;42.90;20.30
28845;DHT22;15976;47.938;7.758;2023-05-29T11:34:57;42.80;20.00
28845;DHT22;15976;47.938;7.758;2023-05-29T11:37:53;42.80;20.30
28845;DHT22;15976;47.938;7.758;2023-05-29T11:40:47;42.90;20.10
28845;DHT22;15976;47.938;7.758;2023-05-29T11:43:17;43.30;19.90
28845;DHT22;15976;47.938;7.758;2023-05-29T11:45:48;43.80;19.60
28845;DHT22;15976;47.938;7.758;2023-05-29T11:48:26;43.80;19.30
28845;DHT22;15976;47.938;7.758;2023-05-29T11:50:58;43.60;19.20
28845;DHT22;15976;47.938;7.758;2023-05-29T11:53:37;43.30;19.10
28845;DHT22;15976;47.938;7.758;2023-05-29T11:56:07;42.90;19.40
28845;DHT22;15976;47.938;7.758;2023-05-29T11:58:43;42.60;19.80
28845;DHT22;15976;47.938;7.758;2023-05-29T12:01:25;42.50;20.00
28845;DHT22;15976;47.938;7.758;2023-05-29T12:03:55;42.60;19.90
28845;DHT22;15976;47.938;7.758;2023-05-29T12:06:37;43.00;19.70
28845;DHT22;15976;47.938;7.758;2023-05-29T12:09:24;43.40;19.60
28845;DHT22;15976;47.938;7.758;2023-05-29T12:12:04;43.90;19.30
28845;DHT22;15976;47.938;7.758;2023-05-29T12:14:37;44.20;18.90
28845;DHT22;15976;47.938;7.758;2023-05-29T12:17:09;44.20;18.80
28845;DHT22;15976;47.938;7.758;2023-05-29T12:19:42;44.30;19.00
28845;DHT22;15976;47.938;7.758;2023-05-29T12:22:35;44.70;18.90
28845;DHT22;15976;47.938;7.758;2023-05-29T12:25:16;44.90;18.60
28845;DHT22;15976;47.938;7.758;2023-05-29T12:27:46;45.10;18.20
28845;DHT22;15976;47.938;7.758;2023-05-29T12:32:59;44.60;18.30
28845;DHT22;15976;47.938;7.758;2023-05-29T12:35:29;44.50;18.50
28845;DHT22;15976;47.938;7.758;2023-05-29T12:40:31;44.50;18.40
28845;DHT22;15976;47.938;7.758;2023-05-29T12:43:03;44.40;18.20
28845;DHT22;15976;47.938;7.758;2023-05-29T12:45:35;44.60;18.10
28845;DHT22;15976;47.938;7.758;2023-05-29T12:48:04;44.50;18.30
28845;DHT22;15976;47.938;7.758;2023-05-29T12:50:34;44.00;18.00
28845;DHT22;15976;47.938;7.758;2023-05-29T12:53:10;43.80;18.30
28845;DHT22;15976;47.938;7.758;2023-05-29T12:55:46;43.80;18.30
28845;DHT22;15976;47.938;7.758;2023-05-29T12:58:19;43.90;18.40
28845;DHT22;15976;47.938;7.758;2023-05-29T13:00:53;43.90;18.40
28845;DHT22;15976;47.938;7.758;2023-05-29T13:03:26;43.90;18.40
28845;DHT22;15976;47.938;7.758;2023-05-29T13:06:00;43.90;18.50
28845;DHT22;15976;47.938;7.758;2023-05-29T13:08:33;43.70;18.50
28845;DHT22;15976;47.938;7.758;2023-05-29T13:11:04;43.90;18.60
28845;DHT22;15976;47.938;7.758;2023-05-29T13:13:34;44.30;18.60
28845;DHT22;15976;47.938;7.758;2023-05-29T13:16:04;44.70;18.50
28845;DHT22;15976;47.938;7.758;2023-05-29T13:18:32;45.20;18.40
28845;DHT22;15976;47.938;7.758;2023-05-29T13:21:02;45.40;18.10
28845;DHT22;15976;47.938;7.758;2023-05-29T13:23:30;45.50;18.00
28845;DHT22;15976;47.938;7.758;2023-05-29T13:26:13;45.40;18.10
28845;DHT22;15976;47.938;7.758;2023-05-29T13:28:46;45.30;18.30
28845;DHT22;15976;47.938;7.758;2023-05-29T13:31:19;45.20;18.40
28845;DHT22;15976;47.938;7.758;2023-05-29T13:33:49;45.20;18.40
28845;DHT22;15976;47.938;7.758;2023-05-29T13:36:19;45.10;18.30
28845;DHT22;15976;47.938;7.758;2023-05-29T13:38:49;45.10;18.30
28845;DHT22;15976;47.938;7.758;2023-05-29T13:41:19;45.20;18.00
28845;DHT22;15976;47.938;7.758;2023-05-29T13:43:46;45.40;18.20
28845;DHT22;15976;47.938;7.758;2023-05-29T13:46:19;45.60;18.40
28845;DHT22;15976;47.938;7.758;2023-05-29T13:48:50;45.70;18.20
28845;DHT22;15976;47.938;7.758;2023-05-29T13:51:23;45.50;18.10
28845;DHT22;15976;47.938;7.758;2023-05-29T13:53:51;45.50;18.10
28845;DHT22;15976;47.938;7.758;2023-05-29T13:56:27;45.50;18.20
28845;DHT22;15976;47.938;7.758;2023-05-29T13:59:01;45.60;18.00
28845;DHT22;15976;47.938;7.758;2023-05-29T14:01:36;45.50;17.70
28845;DHT22;15976;47.938;7.758;2023-05-29T14:04:09;45.20;17.70
28845;DHT22;15976;47.938;7.758;2023-05-29T14:06:40;45.00;17.90
28845;DHT22;15976;47.938;7.758;2023-05-29T14:09:13;44.90;18.00
28845;DHT22;15976;47.938;7.758;2023-05-29T14:11:44;44.80;17.80
28845;DHT22;15976;47.938;7.758;2023-05-29T14:14:14;44.90;17.80
28845;DHT22;15976;47.938;7.758;2023-05-29T14:16:50;44.70;18.00
28845;DHT22;15976;47.938;7.758;2023-05-29T14:19:27;44.80;17.70
28845;DHT22;15976;47.938;7.758;2023-05-29T14:21:58;44.40;17.10
28845;DHT22;15976;47.938;7.758;2023-05-29T14:24:27;44.00;17.10
28845;DHT22;15976;47.938;7.758;2023-05-29T14:26:56;43.80;17.40
28845;DHT22;15976;47.938;7.758;2023-05-29T14:29:24;43.70;17.60
28845;DHT22;15976;47.938;7.758;2023-05-29T14:31:55;43.90;17.50
28845;DHT22;15976;47.938;7.758;2023-05-29T14:34:26;44.00;17.10
28845;DHT22;15976;47.938;7.758;2023-05-29T14:36:58;43.60;16.70
28845;DHT22;15976;47.938;7.758;2023-05-29T14:39:38;43.30;16.90
28845;DHT22;15976;47.938;7.758;2023-05-29T14:42:13;43.30;16.90
28845;DHT22;15976;47.938;7.758;2023-05-29T14:44:50;43.20;16.90
28845;DHT22;15976;47.938;7.758;2023-05-29T14:47:22;42.80;17.00
28845;DHT22;15976;47.938;7.758;2023-05-29T14:49:53;42.50;17.20
28845;DHT22;15976;47.938;7.758;2023-05-29T14:52:21;42.30;17.30
28845;DHT22;15976;47.938;7.758;2023-05-29T14:54:56;42.10;17.50
28845;DHT22;15976;47.938;7.758;2023-05-29T14:57:24;41.90;17.70
28845;DHT22;15976;47.938;7.758;2023-05-29T15:00:01;41.60;17.80
28845;DHT22;15976;47.938;7.758;2023-05-29T15:02:33;41.30;18.10
28845;DHT22;15976;47.938;7.758;2023-05-29T15:05:25;41.10;18.20
28845;DHT22;15976;47.938;7.758;2023-05-29T15:08:01;41.10;18.70
28845;DHT22;15976;47.938;7.758;2023-05-29T15:10:38;41.20;18.10
28845;DHT22;15976;47.938;7.758;2023-05-29T15:13:13;41.10;18.10
28845;DHT22;15976;47.938;7.758;2023-05-29T15:15:49;40.80;18.00
28845;DHT22;15976;47.938;7.758;2023-05-29T15:18:18;39.90;18.30
28845;DHT22;15976;47.938;7.758;2023-05-29T15:20:54;38.70;18.80
28845;DHT22;15976;47.938;7.758;2023-05-29T15:23:31;37.60;19.60
28845;DHT22;15976;47.938;7.758;2023-05-29T15:26:06;36.60;20.30
28845;DHT22;15976;47.938;7.758;2023-05-29T15:28:36;35.80;20.80
28845;DHT22;15976;47.938;7.758;2023-05-29T15:31:10;35.10;21.40
28845;DHT22;15976;47.938;7.758;2023-05-29T15:33:51;34.60;22.00
28845;DHT22;15976;47.938;7.758;2023-05-29T15:36:24;34.10;22.40
28845;DHT22;15976;47.938;7.758;2023-05-29T15:38:58;33.70;22.70
28845;DHT22;15976;47.938;7.758;2023-05-29T15:41:35;33.50;23.10
28845;DHT22;15976;47.938;7.758;2023-05-29T15:44:06;33.10;23.20
28845;DHT22;15976;47.938;7.758;2023-05-29T15:46:37;32.70;23.40
28845;DHT22;15976;47.938;7.758;2023-05-29T15:49:15;32.50;23.60
28845;DHT22;15976;47.938;7.758;2023-05-29T15:51:50;32.30;23.90
28845;DHT22;15976;47.938;7.758;2023-05-29T15:54:38;32.10;24.20
28845;DHT22;15976;47.938;7.758;2023-05-29T15:57:08;32.00;24.00
28845;DHT22;15976;47.938;7.758;2023-05-29T15:59:42;31.80;23.90
28845;DHT22;15976;47.938;7.758;2023-05-29T16:02:10;31.60;24.30
28845;DHT22;15976;47.938;7.758;2023-05-29T16:04:43;31.50;23.90
28845;DHT22;15976;47.938;7.758;2023-05-29T16:07:32;31.30;24.00
28845;DHT22;15976;47.938;7.758;2023-05-29T16:10:02;31.10;24.20
28845;DHT22;15976;47.938;7.758;2023-05-29T16:12:37;31.00;24.50
28845;DHT22;15976;47.938;7.758;2023-05-29T16:15:10;30.90;24.50
28845;DHT22;15976;47.938;7.758;2023-05-29T16:17:41;30.80;24.60
28845;DHT22;15976;47.938;7.758;2023-05-29T16:20:17;30.70;24.80
28845;DHT22;15976;47.938;7.758;2023-05-29T16:22:52;30.70;24.90
28845;DHT22;15976;47.938;7.758;2023-05-29T16:25:26;30.60;24.90
28845;DHT22;15976;47.938;7.758;2023-05-29T16:27:57;30.50;24.90
28845;DHT22;15976;47.938;7.758;2023-05-29T16:30:25;30.40;25.10
28845;DHT22;15976;47.938;7.758;2023-05-29T16:32:53;30.30;25.20
28845;DHT22;15976;47.938;7.758;2023-05-29T16:35:25;30.30;25.50
28845;DHT22;15976;47.938;7.758;2023-05-29T16:38:01;30.20;25.60
28845;DHT22;15976;47.938;7.758;2023-05-29T16:40:40;30.00;25.60
28845;DHT22;15976;47.938;7.758;2023-05-29T16:45:50;29.80;25.90
28845;DHT22;15976;47.938;7.758;2023-05-29T16:48:21;29.70;25.90
28845;DHT22;15976;47.938;7.758;2023-05-29T16:50:49;29.70;26.00
28845;DHT22;15976;47.938;7.758;2023-05-29T16:53:18;29.60;25.90
28845;DHT22;15976;47.938;7.758;2023-05-29T16:55:54;29.60;26.10
28845;DHT22;15976;47.938;7.758;2023-05-29T16:58:21;29.60;26.30
28845;DHT22;15976;47.938;7.758;2023-05-29T17:00:52;29.50;26.30
28845;DHT22;15976;47.938;7.758;2023-05-29T17:03:28;29.60;26.20
28845;DHT22;15976;47.938;7.758;2023-05-29T17:05:59;29.50;26.30
28845;DHT22;15976;47.938;7.758;2023-05-29T17:08:36;29.40;26.30
28845;DHT22;15976;47.938;7.758;2023-05-29T17:11:11;29.40;26.40
28845;DHT22;15976;47.938;7.758;2023-05-29T17:13:41;29.30;26.50
28845;DHT22;15976;47.938;7.758;2023-05-29T17:16:14;29.30;26.80
28845;DHT22;15976;47.938;7.758;2023-05-29T17:18:44;29.20;27.00